Time,TemperatureF,DewpointF,PressureIn,WindDirection,WindDirectionDegrees,WindSpeedMPH,WindSpeedGustMPH,Humidity,HourlyPrecipIn,Conditions,Clouds,dailyrainin,SolarRadiationWatts/m^2,SoftwareType,DateUTC
2013-08-20 00:11:00,76.0,36.0,-100.00,WSW,252,1.0,6.0,23,0.00,,,0.00,0.000000,,2013-08-20 06:11:00,
2013-08-20 00:21:00,76.0,36.0,-100.00,WSW,252,1.0,6.0,23,0.00,,,0.00,0.000000,,2013-08-20 06:21:00,
2013-08-20 00:31:00,76.0,36.0,-100.00,WSW,252,1.0,6.0,23,0.00,,,0.00,0.000000,,2013-08-20 06:31:00,
2013-08-20 01:11:00,74.0,38.0,-100.00,SSW,203,2.0,8.0,27,0.00,,,0.00,0.000000,,2013-08-20 07:11:00,
2013-08-20 01:22:00,74.0,38.0,-100.00,SSW,203,2.0,8.0,27,0.00,,,0.00,0.000000,,2013-08-20 07:22:00,
2013-08-20 01:31:00,74.0,38.0,-100.00,SSW,203,2.0,8.0,27,0.00,,,0.00,0.000000,,2013-08-20 07:31:00,
2013-08-20 01:41:00,74.0,38.0,-100.00,SSW,203,2.0,8.0,27,0.00,,,0.00,0.000000,,2013-08-20 07:41:00,
2013-08-20 02:11:00,72.0,40.0,-100.00,WSW,241,2.0,8.0,31,0.00,,,0.00,0.000000,,2013-08-20 08:11:00,
2013-08-20 02:21:00,72.0,40.0,-100.00,WSW,241,2.0,8.0,31,0.00,,,0.00,0.000000,,2013-08-20 08:21:00,
2013-08-20 02:31:00,72.0,40.0,-100.00,WSW,241,2.0,8.0,31,0.00,,,0.00,0.000000,,2013-08-20 08:31:00,
2013-08-20 02:41:00,72.0,40.0,-100.00,WSW,241,2.0,8.0,31,0.00,,,0.00,0.000000,,2013-08-20 08:41:00,
2013-08-20 02:42:00,70.0,40.0,-100.00,WSW,244,2.0,11.0,34,0.00,,,0.00,0.000000,,2013-08-20 08:42:00,
2013-08-20 03:11:00,70.0,40.0,-100.00,WSW,244,2.0,11.0,34,0.00,,,0.00,0.000000,,2013-08-20 09:11:00,
2013-08-20 03:21:00,70.0,40.0,-100.00,WSW,244,2.0,11.0,34,0.00,,,0.00,0.000000,,2013-08-20 09:21:00,
2013-08-20 03:33:00,70.0,40.0,-100.00,WSW,244,2.0,11.0,34,0.00,,,0.00,0.000000,,2013-08-20 09:33:00,
2013-08-20 03:42:00,68.0,41.0,-100.00,NW,311,1.0,8.0,37,0.00,,,0.00,0.000000,,2013-08-20 09:42:00,
2013-08-20 04:12:00,68.0,41.0,-100.00,NW,311,1.0,8.0,37,0.00,,,0.00,0.000000,,2013-08-20 10:12:00,
2013-08-20 04:22:00,68.0,41.0,-100.00,NW,311,1.0,8.0,37,0.00,,,0.00,0.000000,,2013-08-20 10:22:00,
2013-08-20 04:32:00,68.0,41.0,-100.00,NW,311,1.0,8.0,37,0.00,,,0.00,0.000000,,2013-08-20 10:32:00,
2013-08-20 04:42:00,68.0,41.0,-100.00,WSW,246,3.0,12.0,37,0.00,,,0.00,0.000000,,2013-08-20 10:42:00,
2013-08-20 05:11:00,68.0,41.0,-100.00,WSW,246,3.0,12.0,37,0.00,,,0.00,0.000000,,2013-08-20 11:11:00,
2013-08-20 05:21:00,68.0,41.0,-100.00,WSW,246,3.0,12.0,37,0.00,,,0.00,0.000000,,2013-08-20 11:21:00,
2013-08-20 05:32:00,68.0,41.0,-100.00,WSW,246,3.0,12.0,37,0.00,,,0.00,0.000000,,2013-08-20 11:32:00,
2013-08-20 06:12:00,65.0,41.0,-100.00,SW,225,2.0,8.0,41,0.00,,,0.00,0.000000,,2013-08-20 12:12:00,
2013-08-20 06:21:00,65.0,41.0,-100.00,SW,225,2.0,8.0,41,0.00,,,0.00,0.000000,,2013-08-20 12:21:00,
2013-08-20 06:31:00,65.0,41.0,-100.00,SW,225,2.0,8.0,41,0.00,,,0.00,0.000000,,2013-08-20 12:31:00,
2013-08-20 06:41:00,65.0,41.0,-100.00,SW,225,2.0,8.0,41,0.00,,,0.00,0.000000,,2013-08-20 12:41:00,
2013-08-20 07:11:00,65.0,41.0,-100.00,SSE,149,0.0,7.0,41,0.00,,,0.00,0.000000,,2013-08-20 13:11:00,
2013-08-20 07:21:00,65.0,41.0,-100.00,SSE,149,0.0,7.0,41,0.00,,,0.00,0.000000,,2013-08-20 13:21:00,
2013-08-20 07:32:00,65.0,41.0,-100.00,SSE,149,0.0,7.0,41,0.00,,,0.00,0.000000,,2013-08-20 13:32:00,
2013-08-20 07:41:00,65.0,41.0,-100.00,SSE,149,0.0,7.0,41,0.00,,,0.00,0.000000,,2013-08-20 13:41:00,
2013-08-20 08:11:00,66.0,42.0,-100.00,WSW,237,2.0,8.0,41,0.00,,,0.00,17.000000,,2013-08-20 14:11:00,
2013-08-20 08:21:00,66.0,42.0,-100.00,WSW,237,2.0,8.0,41,0.00,,,0.00,17.000000,,2013-08-20 14:21:00,
2013-08-20 08:32:00,66.0,42.0,-100.00,WSW,237,2.0,8.0,41,0.00,,,0.00,17.000000,,2013-08-20 14:32:00,
2013-08-20 08:41:00,66.0,42.0,-100.00,WSW,237,2.0,8.0,41,0.00,,,0.00,17.000000,,2013-08-20 14:41:00,
2013-08-20 08:42:00,70.0,43.0,-100.00,NW,310,2.0,10.0,37,0.00,,,0.00,145.000000,,2013-08-20 14:42:00,
2013-08-20 09:11:00,70.0,43.0,-100.00,NW,310,2.0,10.0,37,0.00,,,0.00,145.000000,,2013-08-20 15:11:00,
2013-08-20 09:22:00,70.0,43.0,-100.00,NW,310,2.0,10.0,37,0.00,,,0.00,145.000000,,2013-08-20 15:22:00,
2013-08-20 09:34:00,70.0,43.0,-100.00,NW,310,2.0,10.0,37,0.00,,,0.00,145.000000,,2013-08-20 15:34:00,
2013-08-20 09:42:00,74.0,43.0,-100.00,WNW,293,3.0,9.0,33,0.00,,,0.00,317.000000,,2013-08-20 15:42:00,
2013-08-20 10:15:00,74.0,43.0,-100.00,WNW,293,3.0,9.0,33,0.00,,,0.00,317.000000,,2013-08-20 16:15:00,
2013-08-20 10:30:00,-999.0,-99.9,-100.00,WNW,293,3.0,9.0,33,0.00,,,0.00,317.000000,,2013-08-20 16:30:00,
2013-08-20 10:39:00,74.0,43.0,-100.00,WNW,293,3.0,9.0,33,0.00,,,0.00,317.000000,,2013-08-20 16:39:00,
2013-08-20 10:42:00,79.0,44.0,-100.00,East,88,3.0,10.0,29,0.00,,,0.00,501.000000,,2013-08-20 16:42:00,
2013-08-20 11:12:00,79.0,44.0,-100.00,East,88,3.0,10.0,29,0.00,,,0.00,501.000000,,2013-08-20 17:12:00,
2013-08-20 11:24:00,79.0,44.0,-100.00,East,88,3.0,10.0,29,0.00,,,0.00,501.000000,,2013-08-20 17:24:00,
2013-08-20 11:34:00,79.0,44.0,-100.00,East,88,3.0,10.0,29,0.00,,,0.00,501.000000,,2013-08-20 17:34:00,
2013-08-20 11:42:00,83.0,42.0,-100.00,ENE,74,6.0,16.0,24,0.00,,,0.00,655.000000,,2013-08-20 17:42:00,
2013-08-20 12:12:00,83.0,42.0,-100.00,ENE,74,6.0,16.0,24,0.00,,,0.00,655.000000,,2013-08-20 18:12:00,
2013-08-20 12:22:00,83.0,42.0,-100.00,ENE,74,6.0,16.0,24,0.00,,,0.00,655.000000,,2013-08-20 18:22:00,
2013-08-20 12:33:00,83.0,42.0,-100.00,ENE,74,6.0,16.0,24,0.00,,,0.00,655.000000,,2013-08-20 18:33:00,
2013-08-20 13:11:00,86.0,40.0,-100.00,WSW,242,5.0,13.0,20,0.00,,,0.00,773.000000,,2013-08-20 19:11:00,
2013-08-20 13:21:00,86.0,40.0,-100.00,WSW,242,5.0,13.0,20,0.00,,,0.00,773.000000,,2013-08-20 19:21:00,
2013-08-20 13:32:00,86.0,40.0,-100.00,WSW,242,5.0,13.0,20,0.00,,,0.00,773.000000,,2013-08-20 19:32:00,
2013-08-20 13:41:00,86.0,40.0,-100.00,WSW,242,5.0,13.0,20,0.00,,,0.00,773.000000,,2013-08-20 19:41:00,
2013-08-20 13:42:00,88.0,35.0,-100.00,South,173,4.0,12.0,15,0.00,,,0.00,834.000000,,2013-08-20 19:42:00,
2013-08-20 14:12:00,88.0,35.0,-100.00,South,173,4.0,12.0,15,0.00,,,0.00,834.000000,,2013-08-20 20:12:00,
2013-08-20 14:21:00,88.0,35.0,-100.00,South,173,4.0,12.0,15,0.00,,,0.00,834.000000,,2013-08-20 20:21:00,
2013-08-20 14:32:00,88.0,35.0,-100.00,South,173,4.0,12.0,15,0.00,,,0.00,834.000000,,2013-08-20 20:32:00,
2013-08-20 14:42:00,91.0,39.0,-100.00,West,263,5.0,12.0,16,0.00,,,0.00,859.000000,,2013-08-20 20:42:00,
2013-08-20 15:11:00,91.0,39.0,-100.00,West,263,5.0,12.0,16,0.00,,,0.00,859.000000,,2013-08-20 21:11:00,
2013-08-20 15:22:00,91.0,39.0,-100.00,West,263,5.0,12.0,16,0.00,,,0.00,859.000000,,2013-08-20 21:22:00,
2013-08-20 15:34:00,91.0,39.0,-100.00,West,263,5.0,12.0,16,0.00,,,0.00,859.000000,,2013-08-20 21:34:00,
2013-08-20 15:42:00,91.0,37.0,-100.00,South,191,9.0,17.0,15,0.00,,,0.00,824.000000,,2013-08-20 21:42:00,
2013-08-20 16:24:00,91.0,37.0,-100.00,South,191,9.0,17.0,15,0.00,,,0.00,824.000000,,2013-08-20 22:24:00,
2013-08-20 16:33:00,91.0,37.0,-100.00,South,191,9.0,17.0,15,0.00,,,0.00,824.000000,,2013-08-20 22:33:00,
2013-08-20 16:42:00,92.0,36.0,-100.00,SSW,206,5.0,16.0,14,0.00,,,0.00,722.000000,,2013-08-20 22:42:00,
2013-08-20 17:12:00,92.0,36.0,-100.00,SSW,206,5.0,16.0,14,0.00,,,0.00,722.000000,,2013-08-20 23:12:00,
2013-08-20 17:22:00,92.0,36.0,-100.00,SSW,206,5.0,16.0,14,0.00,,,0.00,722.000000,,2013-08-20 23:22:00,
2013-08-20 17:33:00,92.0,36.0,-100.00,SSW,206,5.0,16.0,14,0.00,,,0.00,722.000000,,2013-08-20 23:33:00,
2013-08-20 17:42:00,92.0,36.0,-100.00,NW,306,13.0,21.0,14,0.00,,,0.00,602.000000,,2013-08-20 23:42:00,
2013-08-20 18:12:00,92.0,36.0,-100.00,NW,306,13.0,21.0,14,0.00,,,0.00,602.000000,,2013-08-21 00:12:00,
2013-08-20 18:22:00,92.0,36.0,-100.00,NW,306,13.0,21.0,14,0.00,,,0.00,602.000000,,2013-08-21 00:22:00,
2013-08-20 18:32:00,92.0,36.0,-100.00,NW,306,13.0,21.0,14,0.00,,,0.00,602.000000,,2013-08-21 00:32:00,
2013-08-20 18:42:00,91.0,39.0,-100.00,NW,317,12.0,20.0,16,0.00,,,0.00,435.000000,,2013-08-21 00:42:00,
2013-08-20 19:11:00,91.0,39.0,-100.00,NW,317,12.0,20.0,16,0.00,,,0.00,435.000000,,2013-08-21 01:11:00,
2013-08-20 19:21:00,91.0,39.0,-100.00,NW,317,12.0,20.0,16,0.00,,,0.00,435.000000,,2013-08-21 01:21:00,
2013-08-20 19:32:00,91.0,39.0,-100.00,NW,317,12.0,20.0,16,0.00,,,0.00,435.000000,,2013-08-21 01:32:00,
2013-08-20 19:42:00,89.0,41.0,-100.00,NW,307,4.0,16.0,19,0.00,,,0.00,239.000000,,2013-08-21 01:42:00,
2013-08-20 20:12:00,89.0,41.0,-100.00,NW,307,4.0,16.0,19,0.00,,,0.00,239.000000,,2013-08-21 02:12:00,
2013-08-20 20:22:00,89.0,41.0,-100.00,NW,307,4.0,16.0,19,0.00,,,0.00,239.000000,,2013-08-21 02:22:00,
2013-08-20 20:32:00,89.0,41.0,-100.00,NW,307,4.0,16.0,19,0.00,,,0.00,239.000000,,2013-08-21 02:32:00,
2013-08-20 20:42:00,81.0,44.0,-100.00,ENE,71,4.0,11.0,27,0.00,,,0.00,61.000000,,2013-08-21 02:42:00,
2013-08-20 21:12:00,81.0,44.0,-100.00,ENE,71,4.0,11.0,27,0.00,,,0.00,61.000000,,2013-08-21 03:12:00,
2013-08-20 21:22:00,81.0,44.0,-100.00,ENE,71,4.0,11.0,27,0.00,,,0.00,61.000000,,2013-08-21 03:22:00,
2013-08-20 21:35:00,81.0,44.0,-100.00,ENE,71,4.0,11.0,27,0.00,,,0.00,61.000000,,2013-08-21 03:35:00,
2013-08-20 21:42:00,77.0,41.0,-100.00,East,91,8.0,13.0,28,0.00,,,0.00,2.000000,,2013-08-21 03:42:00,
2013-08-20 22:13:00,77.0,41.0,-100.00,East,91,8.0,13.0,28,0.00,,,0.00,2.000000,,2013-08-21 04:13:00,
2013-08-20 22:24:00,77.0,41.0,-100.00,East,91,8.0,13.0,28,0.00,,,0.00,2.000000,,2013-08-21 04:24:00,
2013-08-20 22:33:00,77.0,41.0,-100.00,East,91,8.0,13.0,28,0.00,,,0.00,2.000000,,2013-08-21 04:33:00,
2013-08-20 22:42:00,76.0,41.0,-100.00,West,259,2.0,15.0,29,0.00,,,0.00,0.000000,,2013-08-21 04:42:00,
2013-08-20 23:12:00,76.0,41.0,-100.00,West,259,2.0,15.0,29,0.00,,,0.00,0.000000,,2013-08-21 05:12:00,
2013-08-20 23:22:00,76.0,41.0,-100.00,West,259,2.0,15.0,29,0.00,,,0.00,0.000000,,2013-08-21 05:22:00,
2013-08-20 23:33:00,76.0,41.0,-100.00,West,259,2.0,15.0,29,0.00,,,0.00,0.000000,,2013-08-21 05:33:00,
2013-08-20 23:42:00,73.0,41.0,-100.00,NE,52,4.0,11.0,32,0.00,,,0.00,0.000000,,2013-08-21 05:42:00,